createdAt,value
2023-02-03T00:01:12.315Z,100676.03
2023-02-03T00:03:41.309Z,100681.41
2023-02-03T00:06:10.090Z,100678.72
2023-02-03T00:08:39.047Z,100679.53
2023-02-03T00:11:09.521Z,100680.41
2023-02-03T00:13:37.143Z,100680.59
2023-02-03T00:16:07.619Z,100686.16
2023-02-03T00:18:35.366Z,100700.50
2023-02-03T00:21:04.442Z,100709.41
2023-02-03T00:23:33.618Z,100700.69
2023-02-03T00:26:07.446Z,100702.34
2023-02-03T00:28:36.534Z,100701.72
2023-02-03T00:31:05.569Z,100697.34
2023-02-03T00:33:34.879Z,100700.88
2023-02-03T00:36:06.085Z,100704.41
2023-02-03T00:38:33.810Z,100696.13
2023-02-03T00:41:02.622Z,100696.94
2023-02-03T00:43:30.236Z,100702.34
2023-02-03T00:46:01.025Z,100708.59
2023-02-03T00:48:30.591Z,100707.72
2023-02-03T00:50:59.471Z,100719.38
2023-02-03T00:53:28.493Z,100719.38
2023-02-03T00:55:56.228Z,100724.75
2023-02-03T00:58:25.252Z,100732.84
2023-02-03T01:00:55.354Z,100735.53
2023-02-03T01:03:24.515Z,100727.63
2023-02-03T01:05:53.322Z,100729.28
2023-02-03T01:08:23.726Z,100733.03
2023-02-03T01:10:51.405Z,100734.06
2023-02-03T01:13:19.025Z,100737.59
2023-02-03T01:15:47.143Z,100744.84
2023-02-03T01:18:15.231Z,100744.84
2023-02-03T01:20:44.269Z,100738.59
2023-02-03T01:23:11.952Z,100739.47
2023-02-03T01:25:39.661Z,100745.03
2023-02-03T01:28:07.346Z,100753.94
2023-02-03T01:30:35.065Z,100751.25
2023-02-03T01:33:02.749Z,100752.28
2023-02-03T01:35:30.386Z,100752.94
2023-02-03T01:37:59.576Z,100756.63
2023-02-03T01:40:27.538Z,100746.69
2023-02-03T01:42:55.432Z,100749.78
2023-02-03T01:45:23.142Z,100751.25
2023-02-03T01:47:51.111Z,100757.47
2023-02-03T01:50:19.076Z,100757.28
2023-02-03T01:52:48.257Z,100765.38
2023-02-03T01:55:17.738Z,100765.38
2023-02-03T01:57:46.253Z,100760.78
2023-02-03T02:00:14.405Z,100766.19
2023-02-03T02:02:42.129Z,100772.41
2023-02-03T02:05:11.278Z,100765.38
2023-02-03T02:07:38.992Z,100771.41
2023-02-03T02:10:06.960Z,100772.41
2023-02-03T02:12:35.969Z,100771.56
2023-02-03T02:15:03.657Z,100768.06
2023-02-03T02:17:36.544Z,100767.00
2023-02-03T02:20:21.882Z,100760.78
2023-02-03T02:22:53.077Z,100768.06
2023-02-03T02:25:26.390Z,100775.09
2023-02-03T02:28:09.075Z,100775.09
2023-02-03T02:31:04.068Z,100780.50
2023-02-03T02:33:35.724Z,100786.75
2023-02-03T02:36:05.813Z,100777.78
2023-02-03T02:38:36.932Z,100789.44
2023-02-03T02:41:06.028Z,100783.19
2023-02-03T02:43:36.291Z,100785.69
2023-02-03T02:46:04.556Z,100790.25
2023-02-03T02:48:33.588Z,100793.78
2023-02-03T02:51:02.643Z,100795.66
2023-02-03T02:53:30.710Z,100798.13
2023-02-03T02:55:58.379Z,100794.59
2023-02-03T02:58:26.111Z,100793.78
2023-02-03T03:00:53.757Z,100799.00
2023-02-03T03:03:21.811Z,100804.38
2023-02-03T03:05:50.827Z,100803.34
2023-02-03T03:08:19.849Z,100812.25
2023-02-03T03:10:47.507Z,100802.28
2023-02-03T03:13:17.217Z,100814.75
2023-02-03T03:15:44.908Z,100815.78
2023-02-03T03:18:13.551Z,100818.47
2023-02-03T03:20:42.940Z,100827.38
2023-02-03T03:23:11.480Z,100823.84
2023-02-03T03:25:42.302Z,100830.94
2023-02-03T03:28:11.210Z,100835.47
2023-02-03T03:30:38.999Z,100836.31
2023-02-03T03:33:06.949Z,100836.31
2023-02-03T03:35:37.342Z,100837.34
2023-02-03T03:38:06.273Z,100837.16
2023-02-03T03:40:34.769Z,100823.84
2023-02-03T03:43:04.458Z,100823.84
2023-02-03T03:45:33.385Z,100832.78
2023-02-03T03:48:02.333Z,100841.72
2023-02-03T03:50:30.249Z,100838.16
2023-02-03T03:52:57.921Z,100839.03
2023-02-03T03:55:25.589Z,100837.16
2023-02-03T03:57:55.923Z,100836.31
2023-02-03T04:00:25.634Z,100836.31
2023-02-03T04:02:53.907Z,100840.84
2023-02-03T04:05:21.599Z,100829.91
2023-02-03T04:07:49.300Z,100839.03
2023-02-03T04:10:19.471Z,100832.59
2023-02-03T04:12:47.141Z,100833.41
2023-02-03T04:15:14.828Z,100838.81
2023-02-03T04:17:43.852Z,100841.31
2023-02-03T04:20:12.220Z,100828.84
2023-02-03T04:22:39.824Z,100844.00
2023-02-03T04:25:07.603Z,100844.00
2023-02-03T04:27:35.347Z,100840.50
2023-02-03T04:30:03.284Z,100839.63
2023-02-03T04:32:31.586Z,100831.53
2023-02-03T04:35:00.637Z,100828.84
2023-02-03T04:37:28.377Z,100831.53
2023-02-03T04:39:56.479Z,100836.94
2023-02-03T04:42:24.149Z,100837.97
2023-02-03T04:44:51.871Z,100841.50
2023-02-03T04:47:19.597Z,100840.66
2023-02-03T04:49:47.242Z,100845.03
2023-02-03T04:52:16.355Z,100827.19
2023-02-03T04:54:44.062Z,100837.97
2023-02-03T04:57:11.730Z,100843.38
2023-02-03T04:59:39.433Z,100839.84
2023-02-03T05:02:08.239Z,100848.75
2023-02-03T05:04:35.967Z,100844.41
2023-02-03T05:07:03.713Z,100841.72
2023-02-03T05:09:33.089Z,100843.38
2023-02-03T05:12:00.706Z,100846.06
2023-02-03T05:14:28.354Z,100851.44
2023-02-03T05:16:56.069Z,100856.84
2023-02-03T05:19:23.801Z,100855.81
2023-02-03T05:21:51.448Z,100850.41
2023-02-03T05:24:19.071Z,100853.31
2023-02-03T05:26:48.074Z,100854.97
2023-02-03T05:29:15.734Z,100866.59
2023-02-03T05:31:43.386Z,100864.75
2023-02-03T05:34:11.090Z,100863.88
2023-02-03T05:36:38.743Z,100863.88
2023-02-03T05:39:06.467Z,100859.53
2023-02-03T05:41:51.281Z,100856.84
2023-02-03T05:44:20.258Z,100855.81
2023-02-03T05:46:47.953Z,100859.53
2023-02-03T05:49:15.698Z,100866.59
2023-02-03T05:51:43.390Z,100874.06
2023-02-03T05:54:11.017Z,100870.31
2023-02-03T05:56:38.675Z,100876.75
2023-02-03T05:59:06.508Z,100869.50
2023-02-03T06:01:35.600Z,100881.09
2023-02-03T06:04:03.559Z,100866.81
2023-02-03T06:06:33.951Z,100867.63
2023-02-03T06:09:01.725Z,100874.69
2023-02-03T06:11:29.515Z,100875.72
2023-02-03T06:13:58.949Z,100875.53
2023-02-03T06:16:26.900Z,100875.72
2023-02-03T06:18:58.433Z,100876.34
2023-02-03T06:21:26.061Z,100886.94
2023-02-03T06:23:54.703Z,100891.50
2023-02-03T06:26:22.364Z,100901.88
2023-02-03T06:28:49.996Z,100895.47
2023-02-03T06:31:17.810Z,100894.44
2023-02-03T06:33:45.779Z,100889.03
2023-02-03T06:36:14.880Z,100896.13
2023-02-03T06:38:42.506Z,100897.78
2023-02-03T06:41:10.141Z,100896.13
2023-02-03T06:43:37.809Z,100907.53
2023-02-03T06:46:05.770Z,100899.44
2023-02-03T06:48:33.458Z,100899.44
2023-02-03T06:51:01.595Z,100903.59
2023-02-03T06:53:30.864Z,100900.91
2023-02-03T06:55:58.571Z,100906.94
2023-02-03T06:58:26.362Z,100905.91
2023-02-03T07:00:56.489Z,100910.06
2023-02-03T07:03:24.210Z,100902.84
2023-02-03T07:05:51.893Z,100904.69
2023-02-03T07:08:19.569Z,100916.94
2023-02-03T07:10:48.669Z,100915.91
2023-02-03T07:13:16.364Z,100919.44
2023-02-03T07:15:44.103Z,100921.09
2023-02-03T07:18:13.079Z,100907.44
2023-02-03T07:20:42.604Z,100902.88
2023-02-03T07:23:10.305Z,100901.88
2023-02-03T07:25:38.023Z,100908.94
2023-02-03T07:28:07.137Z,100906.88
2023-02-03T07:30:34.964Z,100908.53
2023-02-03T07:33:02.792Z,100915.59
2023-02-03T07:35:30.845Z,100915.41
2023-02-03T07:37:58.490Z,100922.44
2023-02-03T07:40:26.411Z,100924.13
2023-02-03T07:42:54.271Z,100931.19
2023-02-03T07:45:24.860Z,100920.22
2023-02-03T07:47:52.573Z,100924.78
2023-02-03T07:50:20.575Z,100920.00
2023-02-03T07:52:48.211Z,100915.47
2023-02-03T07:55:15.935Z,100906.72
2023-02-03T07:57:45.210Z,100909.69
2023-02-03T08:00:14.028Z,100912.16
2023-02-03T08:02:43.274Z,100919.03
2023-02-03T08:05:11.705Z,100918.00
2023-02-03T08:07:39.444Z,100912.22
2023-02-03T08:10:07.454Z,100913.03
2023-02-03T08:12:35.239Z,100919.91
2023-02-03T08:15:02.951Z,100916.16
2023-02-03T08:17:31.043Z,100916.81
2023-02-03T08:20:00.075Z,100917.22
2023-02-03T08:22:27.898Z,100902.72
2023-02-03T08:24:55.534Z,100913.13
2023-02-03T08:27:23.548Z,100915.63
2023-02-03T08:29:51.224Z,100904.63
2023-02-03T08:32:19.919Z,100905.25
2023-02-03T08:34:47.638Z,100911.47
2023-02-03T08:37:17.464Z,100920.03
2023-02-03T08:39:45.337Z,100906.97
2023-02-03T08:42:13.102Z,100914.66
2023-02-03T08:44:40.777Z,100918.00
2023-02-03T08:47:08.452Z,100914.88
2023-02-03T08:49:39.570Z,100926.31
2023-02-03T08:52:07.294Z,100919.06
2023-02-03T08:54:36.745Z,100913.00
2023-02-03T08:57:04.457Z,100921.94
2023-02-03T08:59:36.510Z,100919.06
2023-02-03T09:02:05.005Z,100914.47
2023-02-03T09:04:34.511Z,100922.41
2023-02-03T09:07:02.638Z,100916.78
2023-02-03T09:09:32.361Z,100911.38
2023-02-03T09:12:05.486Z,100915.13
2023-02-03T09:14:33.880Z,100914.28
2023-02-03T09:17:01.720Z,100920.31
2023-02-03T09:19:29.666Z,100906.63
2023-02-03T09:21:57.470Z,100910.78
2023-02-03T09:24:25.966Z,100906.03
2023-02-03T09:26:53.641Z,100900.41
2023-02-03T09:29:23.734Z,100906.66
2023-02-03T09:31:52.905Z,100915.84
2023-02-03T09:34:21.751Z,100908.75
2023-02-03T09:36:49.520Z,100909.41
2023-02-03T09:39:17.297Z,100919.16
2023-02-03T09:42:03.409Z,100919.59
2023-02-03T09:44:33.582Z,100913.38
2023-02-03T09:47:02.541Z,100911.06
2023-02-03T09:49:33.562Z,100911.69
2023-02-03T09:52:04.547Z,100922.50
2023-02-03T09:54:34.372Z,100917.91
2023-02-03T09:57:03.446Z,100919.19
2023-02-03T09:59:31.192Z,100910.69
2023-02-03T10:02:02.265Z,100915.06
2023-02-03T10:04:32.456Z,100912.97
2023-02-03T10:07:05.524Z,100905.31
2023-02-03T10:09:37.662Z,100902.22
2023-02-03T10:12:13.950Z,100900.16
2023-02-03T10:14:44.980Z,100894.53
2023-02-03T10:17:18.734Z,100888.94
2023-02-03T10:19:47.183Z,100878.94
2023-02-03T10:22:16.431Z,100868.16
2023-02-03T10:24:46.253Z,100874.38
2023-02-03T10:27:16.058Z,100868.97
2023-02-03T10:29:44.445Z,100863.56
2023-02-03T10:32:12.217Z,100860.22
2023-02-03T10:34:41.359Z,100853.19
2023-02-03T10:37:12.401Z,100856.72
2023-02-03T10:39:41.091Z,100846.94
2023-02-03T10:42:08.763Z,100844.44
2023-02-03T10:44:39.102Z,100845.25
2023-02-03T10:47:21.900Z,100842.56
2023-02-03T10:49:52.810Z,100834.69
2023-02-03T10:52:27.496Z,100831.16
2023-02-03T10:54:56.823Z,100826.16
2023-02-03T10:57:24.466Z,100822.41
2023-02-03T10:59:52.099Z,100823.28
2023-02-03T11:02:24.155Z,100820.13
2023-02-03T11:05:07.398Z,100817.84
2023-02-03T11:07:37.067Z,100820.53
2023-02-03T11:10:04.878Z,100814.31
2023-02-03T11:12:33.331Z,100812.47
2023-02-03T11:15:00.992Z,100810.78
2023-02-03T11:17:29.678Z,100797.09
2023-02-03T11:19:59.758Z,100798.09
2023-02-03T11:22:28.336Z,100795.19
2023-02-03T11:24:58.292Z,100791.47
2023-02-03T11:27:27.744Z,100777.97
2023-02-03T11:29:56.847Z,100788.34
2023-02-03T11:32:24.884Z,100785.03
2023-02-03T11:34:56.151Z,100773.19
2023-02-03T11:37:27.404Z,100773.78
2023-02-03T11:40:19.005Z,100766.75
2023-02-03T11:42:47.220Z,100759.88
2023-02-03T11:45:15.210Z,100764.47
2023-02-03T11:47:46.060Z,100759.06
2023-02-03T11:50:26.126Z,100750.13
2023-02-03T11:53:09.589Z,100745.13
2023-02-03T11:55:49.894Z,100734.31
2023-02-03T11:58:46.028Z,100728.25
2023-02-03T12:01:15.276Z,100728.66
2023-02-03T12:03:51.207Z,100721.00
2023-02-03T12:06:44.102Z,100724.94
2023-02-03T12:09:24.611Z,100717.44
2023-02-03T12:12:25.582Z,100706.00
2023-02-03T12:14:56.724Z,100707.06
2023-02-03T12:17:30.943Z,100707.69
2023-02-03T12:20:05.301Z,100699.38
2023-02-03T12:22:34.710Z,100701.84
2023-02-03T12:25:05.637Z,100693.53
2023-02-03T12:27:39.203Z,100693.13
2023-02-03T12:30:08.843Z,100685.41
2023-02-03T12:32:37.841Z,100683.97
2023-02-03T12:35:07.255Z,100668.19
2023-02-03T12:37:36.339Z,100666.72
2023-02-03T12:40:04.425Z,100654.25
2023-02-03T12:42:32.673Z,100643.88
2023-02-03T12:45:03.128Z,100646.16
2023-02-03T12:47:31.586Z,100639.13
2023-02-03T12:50:01.323Z,100634.34
2023-02-03T12:52:30.048Z,100631.63
2023-02-03T12:55:01.225Z,100621.25
2023-02-03T12:57:30.052Z,100620.63
2023-02-03T13:00:05.996Z,100606.50
2023-02-03T13:02:34.980Z,100610.25
2023-02-03T13:05:06.447Z,100606.25
2023-02-03T13:07:34.759Z,100608.72
2023-02-03T13:10:05.419Z,100598.34
2023-02-03T13:12:34.351Z,100601.25
2023-02-03T13:15:05.237Z,100595.03
2023-02-03T13:17:36.170Z,100592.56
2023-02-03T13:20:05.408Z,100584.66
2023-02-03T13:22:33.824Z,100573.88
2023-02-03T13:25:03.969Z,100571.19
2023-02-03T13:27:40.499Z,100563.31
2023-02-03T13:30:31.765Z,100565.56
2023-02-03T13:33:06.405Z,100564.75
2023-02-03T13:35:37.418Z,100550.44
2023-02-03T13:38:08.840Z,100553.31
2023-02-03T13:40:39.065Z,100559.53
2023-02-03T13:43:07.499Z,100544.59
2023-02-03T13:45:39.216Z,100541.09
2023-02-03T13:48:09.700Z,100538.59
2023-02-03T13:50:38.231Z,100536.53
2023-02-03T13:53:07.240Z,100527.78
2023-02-03T13:55:37.693Z,100512.69
2023-02-03T13:58:05.361Z,100506.66
2023-02-03T14:00:52.261Z,100507.28
2023-02-03T14:03:41.742Z,100496.69
2023-02-03T14:06:12.587Z,100492.13
2023-02-03T14:08:43.796Z,100494.22
2023-02-03T14:11:32.492Z,100478.88
2023-02-03T14:14:02.667Z,100476.38
2023-02-03T14:16:30.414Z,100468.28
2023-02-03T14:19:00.676Z,100461.88
2023-02-03T14:21:28.649Z,100447.38
2023-02-03T14:24:01.470Z,100445.72
2023-02-03T14:26:33.411Z,100440.75
2023-02-03T14:29:01.807Z,100437.84
2023-02-03T14:31:29.609Z,100434.75
2023-02-03T14:34:05.602Z,100420.03
2023-02-03T14:36:35.394Z,100415.44
2023-02-03T14:39:05.597Z,100406.31
2023-02-03T14:41:37.583Z,100393.47
2023-02-03T14:44:07.544Z,100392.66
2023-02-03T14:46:38.311Z,100390.97
2023-02-03T14:49:18.333Z,100383.75
2023-02-03T14:51:50.526Z,100376.47
2023-02-03T14:54:25.204Z,100357.81
2023-02-03T14:57:13.076Z,100362.19
2023-02-03T14:59:49.791Z,100356.56
2023-02-03T15:02:20.727Z,100348.28
2023-02-03T15:04:51.478Z,100339.16
2023-02-03T15:07:38.250Z,100337.28
2023-02-03T15:10:11.753Z,100330.88
2023-02-03T15:12:42.287Z,100339.16
2023-02-03T15:15:17.522Z,100347.03
2023-02-03T15:17:45.213Z,100347.03
2023-02-03T15:20:27.321Z,100360.50
2023-02-03T15:22:54.971Z,100358.66
2023-02-03T15:25:22.986Z,100352.19
2023-02-03T15:27:51.523Z,100357.41
2023-02-03T15:30:19.849Z,100344.97
2023-02-03T15:32:50.873Z,100346.63
2023-02-03T15:35:18.971Z,100339.34
2023-02-03T15:37:50.155Z,100343.69
2023-02-03T15:40:18.555Z,100334.59
2023-02-03T15:42:49.462Z,100326.50
2023-02-03T15:45:19.273Z,100329.19
2023-02-03T15:47:48.796Z,100320.28
2023-02-03T15:50:25.769Z,100306.81
2023-02-03T15:52:55.775Z,100314.91
2023-02-03T15:55:25.621Z,100311.34
2023-02-03T15:57:53.876Z,100304.31
2023-02-03T16:00:34.621Z,100298.91
2023-02-03T16:03:05.089Z,100297.88
2023-02-03T16:05:33.960Z,100296.84
2023-02-03T16:08:16.451Z,100282.53
2023-02-03T16:10:47.568Z,100287.94
2023-02-03T16:13:20.146Z,100273.59
2023-02-03T16:15:59.677Z,100257.44
2023-02-03T16:18:27.382Z,100254.75
2023-02-03T16:20:55.812Z,100254.75
2023-02-03T16:23:23.800Z,100244.81
2023-02-03T16:26:06.463Z,100236.72
2023-02-03T16:28:51.533Z,100226.97
2023-02-03T16:31:37.787Z,100234.22
2023-02-03T16:34:32.044Z,100239.63
2023-02-03T16:37:18.105Z,100239.63
2023-02-03T16:40:02.761Z,100235.28
2023-02-03T16:42:55.582Z,100232.56
2023-02-03T16:45:41.145Z,100225.50
2023-02-03T16:48:28.106Z,100210.19
2023-02-03T16:50:58.113Z,100214.72
2023-02-03T16:53:28.114Z,100207.69
2023-02-03T16:55:56.361Z,100199.00
2023-02-03T16:58:26.129Z,100204.19
2023-02-03T17:00:53.984Z,100196.91
2023-02-03T17:03:24.709Z,100198.56
2023-02-03T17:05:52.405Z,100201.25
2023-02-03T17:08:20.542Z,100189.47
2023-02-03T17:10:50.226Z,100178.66
2023-02-03T17:13:17.974Z,100180.31
2023-02-03T17:15:48.687Z,100177.00
2023-02-03T17:18:16.481Z,100179.69
2023-02-03T17:20:44.188Z,100177.00
2023-02-03T17:23:12.613Z,100170.78
2023-02-03T17:25:40.459Z,100158.13
2023-02-03T17:28:09.424Z,100148.19
2023-02-03T17:30:37.166Z,100150.03
2023-02-03T17:33:13.743Z,100154.41
2023-02-03T17:35:41.927Z,100156.50
2023-02-03T17:38:09.587Z,100143.00
2023-02-03T17:54:31.285Z,100111.91
2023-02-03T17:57:01.713Z,100106.53
2023-02-03T17:59:29.456Z,100099.28
2023-02-03T18:01:57.984Z,100093.06
2023-02-03T18:04:28.758Z,100082.06
2023-02-03T18:06:56.422Z,100080.41
2023-02-03T18:09:24.821Z,100071.28
2023-02-03T18:11:52.545Z,100073.75
2023-02-03T18:14:21.167Z,100069.19
2023-02-03T18:16:48.891Z,100079.16
2023-02-03T18:19:17.523Z,100077.50
2023-02-03T18:21:46.541Z,100081.03
2023-02-03T18:24:14.830Z,100090.75
2023-02-03T18:26:47.437Z,100088.06
2023-02-03T18:29:15.136Z,100079.97
2023-02-03T18:31:44.165Z,100074.00
2023-02-03T18:34:12.795Z,100074.00
2023-02-03T18:39:16.777Z,100066.94
2023-02-03T18:41:44.501Z,100063.63
2023-02-03T18:44:12.184Z,100054.50
2023-02-03T18:46:40.656Z,100048.50
2023-02-03T18:49:09.278Z,100054.72
2023-02-03T18:51:38.793Z,100049.31
2023-02-03T18:54:06.576Z,100049.31
2023-02-03T18:56:37.024Z,100050.38
2023-02-03T18:59:05.782Z,100052.84
2023-02-03T19:01:34.837Z,100058.03
2023-02-03T19:04:05.046Z,100073.13
2023-02-03T19:06:35.748Z,100066.72
2023-02-03T19:09:03.482Z,100070.25
2023-02-03T19:11:32.769Z,100082.06
2023-02-03T19:14:01.847Z,100075.00
2023-02-03T19:16:30.873Z,100085.78
2023-02-03T19:18:58.539Z,100093.88
2023-02-03T19:21:27.036Z,100096.56
2023-02-03T19:23:54.852Z,100093.06
2023-02-03T19:26:23.465Z,100099.28
2023-02-03T19:28:52.613Z,100101.97
2023-02-03T19:31:22.697Z,100096.56
2023-02-03T19:33:50.581Z,100097.41
2023-02-03T19:36:19.012Z,100088.72
2023-02-03T19:38:46.654Z,100096.56
2023-02-03T19:41:14.405Z,100099.06
2023-02-03T19:43:42.943Z,100095.56
2023-02-03T19:46:10.640Z,100094.69
2023-02-03T19:48:40.597Z,100086.41
2023-02-03T19:51:08.312Z,100083.72
2023-02-03T19:53:37.446Z,100082.91
2023-02-03T19:56:05.648Z,100077.28
2023-02-03T19:58:34.093Z,100078.13
2023-02-03T20:01:01.750Z,100062.78
2023-02-03T20:03:34.348Z,100070.84
2023-02-03T20:06:04.037Z,100067.09
2023-02-03T20:08:32.912Z,100059.25
2023-02-03T20:11:01.103Z,100063.34
2023-02-03T20:13:29.771Z,100059.63
2023-02-03T20:15:57.443Z,100049.69
2023-02-03T20:18:25.109Z,100050.50
2023-02-03T20:20:53.827Z,100041.59
2023-02-03T20:23:22.926Z,100039.72
2023-02-03T20:25:50.697Z,100040.34
2023-02-03T20:28:19.860Z,100037.63
2023-02-03T20:30:47.570Z,100039.28
2023-02-03T20:33:22.017Z,100033.06
2023-02-03T20:35:49.674Z,100032.03
2023-02-03T20:38:17.380Z,100028.28
2023-02-03T20:40:47.988Z,100025.59
2023-02-03T20:43:16.737Z,100020.00
2023-02-03T20:45:45.704Z,100021.03
2023-02-03T20:48:13.421Z,100017.31
2023-02-03T20:50:47.461Z,100017.31
2023-02-03T20:53:18.525Z,100016.44
2023-02-03T20:55:54.122Z,100011.91
2023-02-03T20:58:24.073Z,100010.84
2023-02-03T21:00:52.524Z,100012.72
2023-02-03T21:03:42.672Z,100009.78
2023-02-03T21:06:14.345Z,100013.56
2023-02-03T21:08:43.228Z,100004.41
2023-02-03T21:11:13.827Z,100002.75
2023-02-03T21:13:43.590Z,99989.09
2023-02-03T21:16:17.122Z,99985.53
2023-02-03T21:18:45.697Z,99980.16
2023-02-03T21:21:13.848Z,99970.22
2023-02-03T21:23:42.989Z,99982.84
2023-02-03T21:26:21.702Z,99984.50
2023-02-03T21:28:50.890Z,99984.50
2023-02-03T21:31:20.088Z,99972.66
2023-02-03T21:33:48.671Z,99978.88
2023-02-03T21:36:16.737Z,99975.38
2023-02-03T21:38:45.731Z,99958.38
2023-02-03T21:41:15.881Z,99952.97
2023-02-03T21:43:51.168Z,99949.22
2023-02-03T21:46:19.055Z,99937.63
2023-02-03T21:48:48.174Z,99943.84
2023-02-03T21:51:17.278Z,99937.63
2023-02-03T21:53:45.886Z,99933.06
2023-02-03T21:56:18.402Z,99938.28
2023-02-03T21:58:48.609Z,99940.13
2023-02-03T22:01:18.719Z,99934.13
2023-02-03T22:03:50.924Z,99930.59
2023-02-03T22:06:24.769Z,99923.53
2023-02-03T22:08:58.891Z,99916.50
2023-02-03T22:11:27.948Z,99915.69
2023-02-03T22:13:57.083Z,99913.00
2023-02-03T22:16:25.935Z,99904.09
2023-02-03T22:18:53.619Z,99910.50
2023-02-03T22:21:22.110Z,99903.47
2023-02-03T22:23:49.863Z,99907.00
2023-02-03T22:26:18.339Z,99902.41
2023-02-03T22:28:45.976Z,99904.28
2023-02-03T22:31:20.037Z,99897.03
2023-02-03T22:33:47.732Z,99897.03
2023-02-03T22:36:16.833Z,99895.38
2023-02-03T22:38:44.554Z,99890.81
2023-02-03T22:41:13.804Z,99878.41
2023-02-03T22:43:41.545Z,99870.50
2023-02-03T22:46:10.058Z,99858.69
2023-02-03T22:48:39.169Z,99860.56
2023-02-03T22:51:07.741Z,99865.13
2023-02-03T22:53:35.800Z,99857.25
2023-02-03T22:56:03.499Z,99858.09
2023-02-03T22:58:31.910Z,99856.44
2023-02-03T23:00:59.564Z,99850.44
2023-02-03T23:03:28.094Z,99826.16
2023-02-03T23:05:57.422Z,99831.56
2023-02-03T23:08:25.831Z,99829.91
2023-02-03T23:10:53.470Z,99836.13
2023-02-03T23:13:21.865Z,99835.31
2023-02-03T23:15:49.611Z,99838.00
2023-02-03T23:18:18.036Z,99828.28
2023-02-03T23:20:45.713Z,99830.38
2023-02-03T23:23:15.653Z,99810.44
2023-02-03T23:25:43.350Z,99819.59
2023-02-03T23:28:11.053Z,99818.78
2023-02-03T23:30:38.740Z,99823.34
2023-02-03T23:33:06.427Z,99823.34
2023-02-03T23:35:49.316Z,99813.59
2023-02-03T23:38:18.458Z,99827.06
2023-02-03T23:40:46.335Z,99814.66
2023-02-03T23:43:14.032Z,99787.91
2023-02-03T23:45:41.828Z,99793.91
2023-02-03T23:48:09.517Z,99803.88
2023-02-03T23:50:37.231Z,99803.06
2023-02-03T23:53:04.924Z,99814.66
2023-02-03T23:55:33.988Z,99799.50
2023-02-03T23:58:01.668Z,99799.50
